createdAt,value
2024-05-09T00:01:29.910Z,9.10
2024-05-09T00:03:57.011Z,9.55
2024-05-09T00:06:24.118Z,9.02
2024-05-09T00:08:51.226Z,9.15
2024-05-09T00:11:18.437Z,9.65
2024-05-09T00:13:45.703Z,9.18
2024-05-09T00:16:12.735Z,9.23
2024-05-09T00:18:39.892Z,9.07
2024-05-09T00:21:09.510Z,8.77
2024-05-09T00:23:37.066Z,8.70
2024-05-09T00:26:04.543Z,8.95
2024-05-09T00:28:31.711Z,9.13
2024-05-09T00:30:58.869Z,13.82
2024-05-09T00:33:26.274Z,18.77
2024-05-09T00:35:53.516Z,9.90
2024-05-09T00:38:20.692Z,9.98
2024-05-09T00:40:47.838Z,10.10
2024-05-09T00:43:15.609Z,10.40
2024-05-09T00:45:44.016Z,10.95
2024-05-09T00:48:17.277Z,10.32
2024-05-09T00:50:48.009Z,10.68
2024-05-09T00:53:17.326Z,9.82
2024-05-09T00:55:46.131Z,8.95
2024-05-09T00:58:16.871Z,9.90
2024-05-09T01:00:44.949Z,9.48
2024-05-09T01:03:13.918Z,8.60
2024-05-09T01:05:43.215Z,8.95
2024-05-09T01:08:11.933Z,8.48
2024-05-09T01:10:40.779Z,9.93
2024-05-09T01:13:10.121Z,10.20
2024-05-09T01:15:37.181Z,8.95
2024-05-09T01:18:11.663Z,8.65
2024-05-09T01:20:43.083Z,8.45
2024-05-09T01:23:15.156Z,8.65
2024-05-09T01:25:44.990Z,9.48
2024-05-09T01:28:12.578Z,9.50
2024-05-09T01:30:39.699Z,9.88
2024-05-09T01:33:09.294Z,10.60
2024-05-09T01:35:38.905Z,10.18
2024-05-09T01:38:07.725Z,10.40
2024-05-09T01:40:38.764Z,10.65
2024-05-09T01:43:11.245Z,11.85
2024-05-09T01:45:41.280Z,11.23
2024-05-09T01:48:09.611Z,11.52
2024-05-09T01:50:40.833Z,11.13
2024-05-09T01:53:15.284Z,11.18
2024-05-09T01:55:43.489Z,11.05
2024-05-09T01:58:10.789Z,9.82
2024-05-09T02:00:42.182Z,9.60
2024-05-09T02:03:15.901Z,9.10
2024-05-09T02:05:47.562Z,9.20
2024-05-09T02:08:21.238Z,9.15
2024-05-09T02:10:50.672Z,9.77
2024-05-09T02:13:21.389Z,11.23
2024-05-09T02:15:52.275Z,14.23
2024-05-09T02:18:22.752Z,12.55
2024-05-09T02:20:50.273Z,10.18
2024-05-09T02:23:18.300Z,10.13
2024-05-09T02:25:45.645Z,10.48
2024-05-09T02:28:12.915Z,10.13
2024-05-09T02:30:41.839Z,9.75
2024-05-09T02:33:12.373Z,9.55
2024-05-09T02:35:42.756Z,9.55
2024-05-09T02:38:10.686Z,9.55
2024-05-09T02:40:39.519Z,10.73
2024-05-09T02:43:10.533Z,11.70
2024-05-09T02:45:39.689Z,11.88
2024-05-09T02:48:10.282Z,11.50
2024-05-09T02:50:39.615Z,12.70
2024-05-09T02:53:09.100Z,18.58
2024-05-09T02:55:37.689Z,16.73
2024-05-09T02:58:06.979Z,15.73
2024-05-09T03:00:39.031Z,13.60
2024-05-09T03:03:10.779Z,12.05
2024-05-09T03:05:40.514Z,12.57
2024-05-09T03:08:08.178Z,12.52
2024-05-09T03:10:37.812Z,13.10
2024-05-09T03:13:12.898Z,12.68
2024-05-09T03:15:41.389Z,13.07
2024-05-09T03:18:09.180Z,11.77
2024-05-09T03:20:37.217Z,12.20
2024-05-09T03:23:08.093Z,12.15
2024-05-09T03:25:36.186Z,9.35
2024-05-09T03:28:03.680Z,9.10
2024-05-09T03:30:39.529Z,9.85
2024-05-09T03:33:18.604Z,10.70
2024-05-09T03:35:48.010Z,9.10
2024-05-09T03:38:15.481Z,10.63
2024-05-09T03:40:50.780Z,9.40
2024-05-09T03:43:19.876Z,10.02
2024-05-09T03:45:49.664Z,11.52
2024-05-09T03:48:17.275Z,10.95
2024-05-09T03:50:44.737Z,10.68
2024-05-09T03:53:14.246Z,10.73
2024-05-09T03:55:41.519Z,10.50
2024-05-09T03:58:08.977Z,10.50
2024-05-09T04:00:39.265Z,10.18
2024-05-09T04:03:10.996Z,9.98
2024-05-09T04:05:42.106Z,9.70
2024-05-09T04:08:10.858Z,9.57
2024-05-09T04:10:38.195Z,10.20
2024-05-09T04:13:05.707Z,9.18
2024-05-09T04:15:33.037Z,9.15
2024-05-09T04:18:01.320Z,7.65
2024-05-09T04:20:37.102Z,8.73
2024-05-09T04:23:09.470Z,8.52
2024-05-09T04:25:37.388Z,7.72
2024-05-09T04:28:05.559Z,8.48
2024-05-09T04:30:38.550Z,10.15
2024-05-09T04:33:11.306Z,10.88
2024-05-09T04:35:42.299Z,11.70
2024-05-09T04:38:10.193Z,11.25
2024-05-09T04:40:37.951Z,10.38
2024-05-09T04:43:06.365Z,9.60
2024-05-09T04:45:33.748Z,9.52
2024-05-09T04:48:01.660Z,10.70
2024-05-09T04:50:35.724Z,9.60
2024-05-09T04:53:10.973Z,9.30
2024-05-09T04:55:40.473Z,10.07
2024-05-09T04:58:14.210Z,10.50
2024-05-09T05:00:41.961Z,9.80
2024-05-09T05:03:14.431Z,12.55
2024-05-09T05:05:45.170Z,12.30
2024-05-09T05:08:14.346Z,15.55
2024-05-09T05:10:43.478Z,11.05
2024-05-09T05:13:23.258Z,9.13
2024-05-09T05:15:58.476Z,11.27
2024-05-09T05:18:29.557Z,9.02
2024-05-09T05:20:58.210Z,5.45
2024-05-09T05:23:25.486Z,4.38
2024-05-09T05:25:54.190Z,4.60
2024-05-09T05:28:22.383Z,5.05
2024-05-09T05:30:49.862Z,5.30
2024-05-09T05:33:22.595Z,5.95
2024-05-09T05:38:17.490Z,5.30
2024-05-09T05:40:44.664Z,6.40
2024-05-09T05:43:18.845Z,5.70
2024-05-09T05:45:46.935Z,9.88
2024-05-09T05:48:18.208Z,4.97
2024-05-09T05:50:45.982Z,4.43
2024-05-09T05:53:13.471Z,4.28
2024-05-09T05:55:41.851Z,4.72
2024-05-09T05:58:13.307Z,4.13
2024-05-09T06:00:42.394Z,5.28
2024-05-09T06:03:12.722Z,4.07
2024-05-09T06:05:43.314Z,3.42
2024-05-09T06:08:10.795Z,3.65
2024-05-09T06:10:40.252Z,3.97
2024-05-09T06:13:13.025Z,3.63
2024-05-09T06:15:41.324Z,3.35
2024-05-09T06:18:10.752Z,3.92
2024-05-09T06:20:40.390Z,3.72
2024-05-09T06:23:09.636Z,3.60
2024-05-09T06:25:37.873Z,3.72
2024-05-09T06:28:05.750Z,3.22
2024-05-09T06:33:04.496Z,3.75
2024-05-09T06:35:31.986Z,2.97
2024-05-09T06:37:59.120Z,3.20
2024-05-09T06:40:35.889Z,3.17
2024-05-09T06:43:10.731Z,3.30
2024-05-09T06:45:39.893Z,3.58
2024-05-09T06:48:09.250Z,4.00
2024-05-09T06:50:38.529Z,4.03
2024-05-09T06:53:09.881Z,2.78
2024-05-09T06:55:37.984Z,3.20
2024-05-09T06:58:11.671Z,6.80
2024-05-09T07:00:41.284Z,4.03
2024-05-09T07:03:12.737Z,4.13
2024-05-09T07:05:41.759Z,3.95
2024-05-09T07:08:12.086Z,2.70
2024-05-09T07:10:39.452Z,2.95
2024-05-09T07:13:16.512Z,3.00
2024-05-09T07:15:43.872Z,3.10
2024-05-09T07:18:17.388Z,3.00
2024-05-09T07:20:46.872Z,2.58
2024-05-09T07:23:14.816Z,2.67
2024-05-09T07:25:42.575Z,3.17
2024-05-09T07:28:20.450Z,2.65
2024-05-09T07:30:47.960Z,2.80
2024-05-09T07:33:20.894Z,2.67
2024-05-09T07:35:49.531Z,2.90
2024-05-09T07:38:16.719Z,3.10
2024-05-09T07:40:43.822Z,2.63
2024-05-09T07:43:11.994Z,2.40
2024-05-09T07:45:48.833Z,2.90
2024-05-09T07:52:38.215Z,2.58
2024-05-09T07:53:47.903Z,2.70
2024-05-09T07:56:19.929Z,2.63
2024-05-09T07:58:51.251Z,2.63
2024-05-09T08:01:19.153Z,2.60
2024-05-09T08:03:46.806Z,2.95
2024-05-09T08:06:14.167Z,2.35
2024-05-09T08:08:41.349Z,2.58
2024-05-09T08:11:08.474Z,2.65
2024-05-09T08:13:35.588Z,2.58
2024-05-09T08:16:02.806Z,2.40
2024-05-09T08:18:30.276Z,2.42
2024-05-09T08:20:58.817Z,2.25
2024-05-09T08:23:25.948Z,2.55
2024-05-09T08:25:53.223Z,2.00
2024-05-09T08:28:20.710Z,2.40
2024-05-09T08:30:48.171Z,2.60
2024-05-09T08:33:15.797Z,2.83
2024-05-09T08:35:42.988Z,2.80
2024-05-09T08:38:10.260Z,4.43
2024-05-09T08:40:38.367Z,3.90
2024-05-09T08:43:11.829Z,3.42
2024-05-09T08:45:44.177Z,3.85
2024-05-09T08:48:15.167Z,3.25
2024-05-09T08:50:44.763Z,3.30
2024-05-09T08:53:14.500Z,2.85
2024-05-09T08:55:43.494Z,3.08
2024-05-09T08:58:18.161Z,5.07
2024-05-09T09:00:46.935Z,3.58
2024-05-09T09:03:26.828Z,4.18
2024-05-09T09:06:07.221Z,3.90
2024-05-09T09:08:34.533Z,3.30
2024-05-09T09:11:01.821Z,3.00
2024-05-09T09:13:29.228Z,2.72
2024-05-09T09:16:00.048Z,3.35
2024-05-09T09:18:29.341Z,3.15
2024-05-09T09:20:56.846Z,2.47
2024-05-09T09:23:24.158Z,2.88
2024-05-09T09:25:52.046Z,2.90
2024-05-09T09:28:23.321Z,3.70
2024-05-09T09:30:50.822Z,2.80
2024-05-09T09:33:18.548Z,4.53
2024-05-09T09:35:45.695Z,2.83
2024-05-09T09:38:18.617Z,5.07
2024-05-09T09:40:50.103Z,3.22
2024-05-09T09:43:22.572Z,2.50
2024-05-09T09:45:53.356Z,2.25
2024-05-09T09:48:22.557Z,2.47
2024-05-09T09:50:52.989Z,2.55
2024-05-09T09:53:22.604Z,2.47
2024-05-09T09:55:51.187Z,2.40
2024-05-09T09:58:18.602Z,2.30
2024-05-09T10:00:46.182Z,3.17
2024-05-09T10:03:13.525Z,2.90
2024-05-09T10:05:44.048Z,2.40
2024-05-09T10:08:14.966Z,2.60
2024-05-09T10:10:50.562Z,2.25
2024-05-09T10:13:20.011Z,2.50
2024-05-09T10:15:52.810Z,2.45
2024-05-09T10:18:28.376Z,2.45
2024-05-09T10:20:58.007Z,2.22
2024-05-09T10:23:34.630Z,2.60
2024-05-09T10:26:07.346Z,3.10
2024-05-09T10:28:37.110Z,3.60
2024-05-09T10:31:15.986Z,3.22
2024-05-09T10:33:50.252Z,2.67
2024-05-09T10:36:29.315Z,2.50
2024-05-09T10:38:56.467Z,2.50
2024-05-09T10:41:24.237Z,2.65
2024-05-09T10:43:52.200Z,2.63
2024-05-09T10:46:20.050Z,2.80
2024-05-09T10:48:48.624Z,4.72
2024-05-09T10:51:19.487Z,2.70
2024-05-09T10:53:48.758Z,3.10
2024-05-09T10:56:17.314Z,3.15
2024-05-09T10:58:46.219Z,2.47
2024-05-09T11:01:14.081Z,17.17
2024-05-09T11:03:42.473Z,2.80
2024-05-09T11:06:11.477Z,3.45
2024-05-09T11:08:39.563Z,2.88
2024-05-09T11:11:08.935Z,2.83
2024-05-09T11:13:40.825Z,3.70
2024-05-09T11:16:21.444Z,2.60
2024-05-09T11:18:57.162Z,3.20
2024-05-09T11:21:25.608Z,2.70
2024-05-09T11:23:53.260Z,2.58
2024-05-09T11:26:22.238Z,2.90
2024-05-09T11:28:51.496Z,2.58
2024-05-09T11:31:19.868Z,2.60
2024-05-09T11:33:48.406Z,3.20
2024-05-09T11:36:16.216Z,3.88
2024-05-09T11:38:43.435Z,2.55
2024-05-09T11:41:18.609Z,2.88
2024-05-09T11:43:45.850Z,2.90
2024-05-09T11:46:13.215Z,3.05
2024-05-09T11:48:41.676Z,3.13
2024-05-09T11:51:08.814Z,3.35
2024-05-09T11:53:35.919Z,2.60
2024-05-09T11:56:04.022Z,2.95
2024-05-09T11:58:34.616Z,2.50
2024-05-09T12:01:03.107Z,3.30
2024-05-09T12:03:31.000Z,8.93
2024-05-09T12:05:58.529Z,2.70
2024-05-09T12:08:26.143Z,2.42
2024-05-09T12:10:54.587Z,2.58
2024-05-09T12:13:21.795Z,2.90
2024-05-09T12:15:49.027Z,3.97
2024-05-09T12:18:16.279Z,2.60
2024-05-09T12:20:43.501Z,4.13
2024-05-09T12:23:10.913Z,2.80
2024-05-09T12:25:40.904Z,2.90
2024-05-09T12:28:08.805Z,2.90
2024-05-09T12:30:40.834Z,3.00
2024-05-09T12:33:12.179Z,2.90
2024-05-09T12:35:43.364Z,2.60
2024-05-09T12:38:13.369Z,2.95
2024-05-09T12:40:40.503Z,4.18
2024-05-09T12:43:09.287Z,2.85
2024-05-09T12:45:37.937Z,2.90
2024-05-09T12:48:08.519Z,2.75
2024-05-09T12:50:36.737Z,2.85
2024-05-09T12:53:05.338Z,2.40
2024-05-09T12:55:41.163Z,2.90
2024-05-09T12:58:19.222Z,2.60
2024-05-09T13:00:47.153Z,2.83
2024-05-09T13:03:14.937Z,2.08
2024-05-09T13:05:44.993Z,2.60
2024-05-09T13:08:13.499Z,2.40
2024-05-09T13:10:40.810Z,2.97
2024-05-09T13:13:10.272Z,3.05
2024-05-09T13:15:37.709Z,3.47
2024-05-09T13:18:06.376Z,3.85
2024-05-09T13:20:35.693Z,2.70
2024-05-09T13:23:06.995Z,2.55
2024-05-09T13:25:35.341Z,2.92
2024-05-09T13:28:04.179Z,5.68
2024-05-09T13:30:39.276Z,2.40
2024-05-09T13:33:11.794Z,2.70
2024-05-09T13:35:46.671Z,2.88
2024-05-09T13:38:21.210Z,5.00
2024-05-09T13:40:49.877Z,14.45
2024-05-09T13:43:18.236Z,3.40
2024-05-09T13:45:46.138Z,3.67
2024-05-09T13:48:13.704Z,2.70
2024-05-09T13:50:41.026Z,2.55
2024-05-09T13:53:09.051Z,2.38
2024-05-09T13:55:40.503Z,2.53
2024-05-09T13:58:09.135Z,2.67
2024-05-09T14:00:45.169Z,2.65
2024-05-09T14:03:18.663Z,3.10
2024-05-09T14:05:48.019Z,2.45
2024-05-09T14:08:15.980Z,2.83
2024-05-09T14:10:47.260Z,2.60
2024-05-09T14:13:15.694Z,2.83
2024-05-09T14:15:43.363Z,2.60
2024-05-09T14:18:13.506Z,2.50
2024-05-09T14:20:42.405Z,2.78
2024-05-09T14:23:09.980Z,2.58
2024-05-09T14:25:42.030Z,2.72
2024-05-09T14:28:12.725Z,3.15
2024-05-09T14:30:42.767Z,3.42
2024-05-09T14:33:11.627Z,2.45
2024-05-09T14:35:39.323Z,2.40
2024-05-09T14:38:08.540Z,2.92
2024-05-09T14:40:42.086Z,2.72
2024-05-09T14:43:13.428Z,13.98
2024-05-09T14:45:41.824Z,2.85
2024-05-09T14:48:09.853Z,3.30
2024-05-09T14:50:39.513Z,2.47
2024-05-09T14:53:13.176Z,2.35
2024-05-09T14:58:11.514Z,2.40
2024-05-09T15:00:46.942Z,3.10
2024-05-09T15:03:19.549Z,2.80
2024-05-09T15:05:48.023Z,2.70
2024-05-09T15:08:18.445Z,2.97
2024-05-09T15:10:46.585Z,3.10
2024-05-09T15:13:16.428Z,2.55
2024-05-09T15:15:44.401Z,2.65
2024-05-09T15:18:12.020Z,3.63
2024-05-09T15:20:40.819Z,3.05
2024-05-09T15:23:08.014Z,2.38
2024-05-09T15:25:36.744Z,2.50
2024-05-09T15:28:07.624Z,2.40
2024-05-09T15:30:35.489Z,3.17
2024-05-09T15:33:08.978Z,2.42
2024-05-09T15:35:36.363Z,2.63
2024-05-09T15:38:04.517Z,2.63
2024-05-09T15:40:38.918Z,2.47
2024-05-09T15:43:09.927Z,2.70
2024-05-09T15:45:39.209Z,3.85
2024-05-09T15:48:08.452Z,4.60
2024-05-09T15:50:39.777Z,2.85
2024-05-09T15:53:11.008Z,2.60
2024-05-09T15:55:39.804Z,2.90
2024-05-09T15:58:07.916Z,2.80
2024-05-09T16:00:40.037Z,3.10
2024-05-09T16:03:14.540Z,3.92
2024-05-09T16:05:46.499Z,3.20
2024-05-09T16:08:15.014Z,2.65
2024-05-09T16:10:44.673Z,2.97
2024-05-09T16:13:13.162Z,2.97
2024-05-09T16:15:43.648Z,3.60
2024-05-09T16:18:11.246Z,4.00
2024-05-09T16:20:41.265Z,3.00
2024-05-09T16:23:10.641Z,2.95
2024-05-09T16:25:38.099Z,2.35
2024-05-09T16:28:09.042Z,3.80
2024-05-09T16:30:41.302Z,3.13
2024-05-09T16:33:09.398Z,2.75
2024-05-09T16:35:40.088Z,3.28
2024-05-09T16:38:08.047Z,4.13
2024-05-09T16:40:39.712Z,4.68
2024-05-09T16:43:13.011Z,6.57
2024-05-09T16:45:44.186Z,5.97
2024-05-09T16:48:13.164Z,7.53
2024-05-09T16:50:40.528Z,6.00
2024-05-09T16:53:08.530Z,7.25
2024-05-09T16:55:36.477Z,5.45
2024-05-09T16:58:07.986Z,6.00
2024-05-09T17:00:41.048Z,6.15
2024-05-09T17:03:14.022Z,3.95
2024-05-09T17:05:42.963Z,3.42
2024-05-09T17:08:10.565Z,3.75
2024-05-09T17:10:37.858Z,4.38
2024-05-09T17:13:07.351Z,37.20
2024-05-09T17:15:37.324Z,19.25
2024-05-09T17:18:06.857Z,11.75
2024-05-09T17:20:36.816Z,7.70
2024-05-09T17:23:12.917Z,5.28
2024-05-09T17:25:40.918Z,6.25
2024-05-09T17:28:09.525Z,7.35
2024-05-09T17:30:39.628Z,6.50
2024-05-09T17:33:10.259Z,6.57
2024-05-09T17:35:38.696Z,6.50
2024-05-09T17:38:09.320Z,9.32
2024-05-09T17:40:38.178Z,7.00
2024-05-09T17:43:09.367Z,6.45
2024-05-09T17:45:39.850Z,6.63
2024-05-09T17:48:11.021Z,6.07
2024-05-09T17:50:41.241Z,7.47
2024-05-09T17:53:09.554Z,6.63
2024-05-09T17:55:37.106Z,6.70
2024-05-09T17:58:05.943Z,6.15
2024-05-09T18:00:39.315Z,5.22
2024-05-09T18:03:14.313Z,4.40
2024-05-09T18:05:43.537Z,3.75
2024-05-09T18:08:14.149Z,4.32
2024-05-09T18:10:41.823Z,5.40
2024-05-09T18:13:09.896Z,4.97
2024-05-09T18:15:37.856Z,5.05
2024-05-09T18:18:07.521Z,7.82
2024-05-09T18:20:42.357Z,5.82
2024-05-09T18:23:18.321Z,4.78
2024-05-09T18:25:47.643Z,4.65
2024-05-09T18:28:17.155Z,4.70
2024-05-09T18:30:44.952Z,4.70
2024-05-09T18:33:12.570Z,4.97
2024-05-09T18:35:45.049Z,5.22
2024-05-09T18:38:12.542Z,6.50
2024-05-09T18:40:41.872Z,6.70
2024-05-09T18:43:10.938Z,6.57
2024-05-09T18:45:38.866Z,7.43
2024-05-09T18:48:08.617Z,6.55
2024-05-09T18:50:39.694Z,7.00
2024-05-09T18:53:11.409Z,11.35
2024-05-09T18:55:39.723Z,7.70
2024-05-09T18:58:07.513Z,6.38
2024-05-09T19:00:38.692Z,8.07
2024-05-09T19:03:11.246Z,6.72
2024-05-09T19:05:41.464Z,6.05
2024-05-09T19:08:09.294Z,6.18
2024-05-09T19:10:39.037Z,6.45
2024-05-09T19:13:11.814Z,5.68
2024-05-09T19:15:42.199Z,6.50
2024-05-09T19:18:12.087Z,6.50
2024-05-09T19:20:39.790Z,6.47
2024-05-09T19:23:07.560Z,6.50
2024-05-09T19:25:36.056Z,7.20
2024-05-09T19:28:05.188Z,11.38
2024-05-09T19:30:39.439Z,7.03
2024-05-09T19:33:11.273Z,6.63
2024-05-09T19:35:39.735Z,6.60
2024-05-09T19:38:07.276Z,6.72
2024-05-09T19:40:35.404Z,8.13
2024-05-09T19:43:04.979Z,8.13
2024-05-09T19:45:34.032Z,9.00
2024-05-09T19:48:02.307Z,7.10
2024-05-09T19:50:37.369Z,12.20
2024-05-09T19:53:10.378Z,13.68
2024-05-09T19:55:38.124Z,17.02
2024-05-09T19:58:08.796Z,19.83
2024-05-09T20:00:39.624Z,11.43
2024-05-09T20:05:37.774Z,5.93
2024-05-09T20:08:06.253Z,6.00
2024-05-09T20:10:35.515Z,5.93
2024-05-09T20:13:06.425Z,5.97
2024-05-09T20:15:36.843Z,6.47
2024-05-09T20:18:05.544Z,6.55
2024-05-09T20:20:39.135Z,6.32
2024-05-09T20:23:13.058Z,6.45
2024-05-09T20:25:41.395Z,6.50
2024-05-09T20:28:08.855Z,6.65
2024-05-09T20:30:36.826Z,6.30
2024-05-09T20:33:07.342Z,6.47
2024-05-09T20:35:35.924Z,6.45
2024-05-09T20:38:03.931Z,6.40
2024-05-09T20:40:35.993Z,6.47
2024-05-09T20:43:07.096Z,7.03
2024-05-09T20:45:34.866Z,6.40
2024-05-09T20:48:02.583Z,7.07
2024-05-09T20:50:37.309Z,8.55
2024-05-09T20:53:11.272Z,7.68
2024-05-09T20:55:40.523Z,8.32
2024-05-09T20:58:08.725Z,10.25
2024-05-09T21:00:40.378Z,11.80
2024-05-09T21:03:11.895Z,12.85
2024-05-09T21:05:39.872Z,12.52
2024-05-09T21:08:07.798Z,10.10
2024-05-09T21:10:36.369Z,10.68
2024-05-09T21:13:04.684Z,10.18
2024-05-09T21:15:32.301Z,11.23
2024-05-09T21:17:59.767Z,9.48
2024-05-09T21:22:58.236Z,12.18
2024-05-09T21:25:25.794Z,12.43
2024-05-09T21:27:53.553Z,11.88
2024-05-09T21:30:31.883Z,13.98
2024-05-09T21:33:09.539Z,11.45
2024-05-09T21:35:38.172Z,12.48
2024-05-09T21:38:05.778Z,11.32
2024-05-09T21:40:35.300Z,13.68
2024-05-09T21:43:05.208Z,11.73
2024-05-09T21:45:33.762Z,10.95
2024-05-09T21:48:03.506Z,9.85
2024-05-09T21:50:37.068Z,11.18
2024-05-09T21:53:07.953Z,13.05
2024-05-09T21:55:35.219Z,11.07
2024-05-09T21:58:02.924Z,11.15
2024-05-09T22:00:36.147Z,13.18
2024-05-09T22:03:09.107Z,12.13
2024-05-09T22:05:38.129Z,12.15
2024-05-09T23:19:37.720Z,11.15
2024-05-09T23:22:05.208Z,11.07
2024-05-09T23:24:33.373Z,11.30
2024-05-09T23:27:03.286Z,8.73
2024-05-09T23:29:58.001Z,7.30
2024-05-09T23:32:25.399Z,7.30
2024-05-09T23:34:52.864Z,7.10
2024-05-09T23:37:20.235Z,7.10
2024-05-09T23:39:47.623Z,5.88
2024-05-09T23:42:15.043Z,6.25
2024-05-09T23:45:46.240Z,6.68
2024-05-09T23:48:14.010Z,6.10
2024-05-09T23:50:41.892Z,5.80
2024-05-09T23:53:12.150Z,6.35
2024-05-09T23:55:39.693Z,7.25
2024-05-09T23:58:08.454Z,7.70
